sensor_id;sensor_type;location;lat;lon;timestamp;temperature;humidity
26479;DHT22;14163;-26.142;27.992;2022-09-01T00:00:25;15.20;99.90
26479;DHT22;14163;-26.142;27.992;2022-09-01T00:02:55;15.20;99.90
26479;DHT22;14163;-26.142;27.992;2022-09-01T00:05:25;15.10;99.90
26479;DHT22;14163;-26.142;27.992;2022-09-01T00:07:54;15.10;99.90
26479;DHT22;14163;-26.142;27.992;2022-09-01T00:10:25;15.00;99.90
26479;DHT22;14163;-26.142;27.992;2022-09-01T00:12:54;15.00;99.90
26479;DHT22;14163;-26.142;27.992;2022-09-01T00:15:24;14.80;99.90
26479;DHT22;14163;-26.142;27.992;2022-09-01T00:17:53;14.70;99.90
26479;DHT22;14163;-26.142;27.992;2022-09-01T00:20:22;14.60;99.90
26479;DHT22;14163;-26.142;27.992;2022-09-01T00:22:52;14.50;99.90
26479;DHT22;14163;-26.142;27.992;2022-09-01T00:25:21;14.50;99.90
26479;DHT22;14163;-26.142;27.992;2022-09-01T00:27:53;14.40;99.90
26479;DHT22;14163;-26.142;27.992;2022-09-01T00:30:26;14.50;99.90
26479;DHT22;14163;-26.142;27.992;2022-09-01T00:32:55;14.50;99.90
26479;DHT22;14163;-26.142;27.992;2022-09-01T00:35:24;14.40;99.90
26479;DHT22;14163;-26.142;27.992;2022-09-01T00:37:54;14.40;99.90
26479;DHT22;14163;-26.142;27.992;2022-09-01T00:40:23;14.40;99.90
26479;DHT22;14163;-26.142;27.992;2022-09-01T00:42:54;14.50;99.90
26479;DHT22;14163;-26.142;27.992;2022-09-01T00:45:23;14.40;99.90
26479;DHT22;14163;-26.142;27.992;2022-09-01T00:47:53;14.40;99.90
26479;DHT22;14163;-26.142;27.992;2022-09-01T00:50:23;14.20;99.90
26479;DHT22;14163;-26.142;27.992;2022-09-01T00:52:54;14.10;99.90
26479;DHT22;14163;-26.142;27.992;2022-09-01T00:55:26;14.00;99.90
26479;DHT22;14163;-26.142;27.992;2022-09-01T00:57:59;14.00;99.90
26479;DHT22;14163;-26.142;27.992;2022-09-01T01:00:32;14.00;99.90
26479;DHT22;14163;-26.142;27.992;2022-09-01T01:03:08;14.10;99.90
26479;DHT22;14163;-26.142;27.992;2022-09-01T01:05:41;14.30;99.90
26479;DHT22;14163;-26.142;27.992;2022-09-01T01:08:12;14.30;99.90
26479;DHT22;14163;-26.142;27.992;2022-09-01T01:10:47;14.30;99.90
26479;DHT22;14163;-26.142;27.992;2022-09-01T01:13:18;14.30;99.90
26479;DHT22;14163;-26.142;27.992;2022-09-01T01:15:47;14.20;99.90
26479;DHT22;14163;-26.142;27.992;2022-09-01T01:18:17;14.10;99.90
26479;DHT22;14163;-26.142;27.992;2022-09-01T01:20:47;14.10;99.90
26479;DHT22;14163;-26.142;27.992;2022-09-01T01:23:39;14.10;99.90
26479;DHT22;14163;-26.142;27.992;2022-09-01T01:26:14;14.20;99.90
26479;DHT22;14163;-26.142;27.992;2022-09-01T01:28:44;14.10;99.90
26479;DHT22;14163;-26.142;27.992;2022-09-01T01:31:15;14.10;99.90
26479;DHT22;14163;-26.142;27.992;2022-09-01T01:33:50;14.10;99.90
26479;DHT22;14163;-26.142;27.992;2022-09-01T01:36:22;14.20;99.90
26479;DHT22;14163;-26.142;27.992;2022-09-01T01:38:59;14.20;99.90
26479;DHT22;14163;-26.142;27.992;2022-09-01T01:41:31;14.20;99.90
26479;DHT22;14163;-26.142;27.992;2022-09-01T01:44:02;14.30;99.90
26479;DHT22;14163;-26.142;27.992;2022-09-01T01:46:33;14.40;99.90
26479;DHT22;14163;-26.142;27.992;2022-09-01T01:49:03;14.40;99.90
26479;DHT22;14163;-26.142;27.992;2022-09-01T01:51:32;14.50;99.90
26479;DHT22;14163;-26.142;27.992;2022-09-01T01:54:03;14.60;99.90
26479;DHT22;14163;-26.142;27.992;2022-09-01T01:56:35;14.80;99.90
26479;DHT22;14163;-26.142;27.992;2022-09-01T01:59:08;14.70;99.90
26479;DHT22;14163;-26.142;27.992;2022-09-01T02:01:41;14.70;99.90
26479;DHT22;14163;-26.142;27.992;2022-09-01T02:04:15;14.70;99.90
26479;DHT22;14163;-26.142;27.992;2022-09-01T02:06:46;14.70;99.90
26479;DHT22;14163;-26.142;27.992;2022-09-01T02:09:16;14.70;99.90
26479;DHT22;14163;-26.142;27.992;2022-09-01T02:11:49;14.70;99.90
26479;DHT22;14163;-26.142;27.992;2022-09-01T02:14:20;14.60;99.90
26479;DHT22;14163;-26.142;27.992;2022-09-01T02:16:49;14.60;99.90
26479;DHT22;14163;-26.142;27.992;2022-09-01T02:19:21;14.70;99.90
26479;DHT22;14163;-26.142;27.992;2022-09-01T02:21:50;14.80;99.90
26479;DHT22;14163;-26.142;27.992;2022-09-01T02:24:22;14.80;99.90
26479;DHT22;14163;-26.142;27.992;2022-09-01T02:26:54;14.90;99.90
26479;DHT22;14163;-26.142;27.992;2022-09-01T02:29:25;14.80;99.90
26479;DHT22;14163;-26.142;27.992;2022-09-01T02:31:55;14.60;99.90
26479;DHT22;14163;-26.142;27.992;2022-09-01T02:34:26;14.40;99.90
26479;DHT22;14163;-26.142;27.992;2022-09-01T02:36:57;14.30;99.90
26479;DHT22;14163;-26.142;27.992;2022-09-01T02:39:28;14.20;99.90
26479;DHT22;14163;-26.142;27.992;2022-09-01T02:42:01;14.10;99.90
26479;DHT22;14163;-26.142;27.992;2022-09-01T02:44:30;14.00;99.90
26479;DHT22;14163;-26.142;27.992;2022-09-01T02:47:00;14.00;99.90
26479;DHT22;14163;-26.142;27.992;2022-09-01T02:49:31;14.00;99.90
26479;DHT22;14163;-26.142;27.992;2022-09-01T02:52:02;14.00;99.90
26479;DHT22;14163;-26.142;27.992;2022-09-01T02:54:33;14.00;99.90
26479;DHT22;14163;-26.142;27.992;2022-09-01T02:57:04;14.00;99.90
26479;DHT22;14163;-26.142;27.992;2022-09-01T02:59:34;14.00;99.90
26479;DHT22;14163;-26.142;27.992;2022-09-01T03:02:04;14.00;99.90
26479;DHT22;14163;-26.142;27.992;2022-09-01T03:04:34;13.90;99.90
26479;DHT22;14163;-26.142;27.992;2022-09-01T03:07:05;13.90;99.90
26479;DHT22;14163;-26.142;27.992;2022-09-01T03:09:34;14.00;99.90
26479;DHT22;14163;-26.142;27.992;2022-09-01T03:12:09;14.00;99.90
26479;DHT22;14163;-26.142;27.992;2022-09-01T03:14:38;14.20;99.90
26479;DHT22;14163;-26.142;27.992;2022-09-01T03:17:07;14.30;99.90
26479;DHT22;14163;-26.142;27.992;2022-09-01T03:19:37;14.40;99.90
26479;DHT22;14163;-26.142;27.992;2022-09-01T03:22:08;14.40;99.90
26479;DHT22;14163;-26.142;27.992;2022-09-01T03:24:37;14.40;99.90
26479;DHT22;14163;-26.142;27.992;2022-09-01T03:27:08;14.40;99.90
26479;DHT22;14163;-26.142;27.992;2022-09-01T03:29:37;14.30;99.90
26479;DHT22;14163;-26.142;27.992;2022-09-01T03:32:06;14.30;99.90
26479;DHT22;14163;-26.142;27.992;2022-09-01T03:34:35;14.30;99.90
26479;DHT22;14163;-26.142;27.992;2022-09-01T03:37:05;14.30;99.90
26479;DHT22;14163;-26.142;27.992;2022-09-01T03:39:35;14.30;99.90
26479;DHT22;14163;-26.142;27.992;2022-09-01T03:42:05;14.30;99.90
26479;DHT22;14163;-26.142;27.992;2022-09-01T03:44:38;14.30;99.90
26479;DHT22;14163;-26.142;27.992;2022-09-01T03:47:10;14.30;99.90
26479;DHT22;14163;-26.142;27.992;2022-09-01T03:49:41;14.30;99.90
26479;DHT22;14163;-26.142;27.992;2022-09-01T03:52:11;14.30;99.90
26479;DHT22;14163;-26.142;27.992;2022-09-01T03:54:40;14.40;99.90
26479;DHT22;14163;-26.142;27.992;2022-09-01T03:57:10;14.30;99.90
26479;DHT22;14163;-26.142;27.992;2022-09-01T03:59:41;14.30;99.90
26479;DHT22;14163;-26.142;27.992;2022-09-01T04:02:11;14.40;99.90
26479;DHT22;14163;-26.142;27.992;2022-09-01T04:04:40;14.40;99.90
26479;DHT22;14163;-26.142;27.992;2022-09-01T04:07:09;14.40;99.90
26479;DHT22;14163;-26.142;27.992;2022-09-01T04:09:39;14.30;99.90
26479;DHT22;14163;-26.142;27.992;2022-09-01T04:12:09;14.30;99.90
26479;DHT22;14163;-26.142;27.992;2022-09-01T04:14:43;14.30;99.90
26479;DHT22;14163;-26.142;27.992;2022-09-01T04:17:14;14.30;99.90
26479;DHT22;14163;-26.142;27.992;2022-09-01T04:20:01;14.30;99.90
26479;DHT22;14163;-26.142;27.992;2022-09-01T04:22:34;14.30;99.90
26479;DHT22;14163;-26.142;27.992;2022-09-01T04:25:04;14.20;99.90
26479;DHT22;14163;-26.142;27.992;2022-09-01T04:27:34;14.10;99.90
26479;DHT22;14163;-26.142;27.992;2022-09-01T04:30:09;14.10;99.90
26479;DHT22;14163;-26.142;27.992;2022-09-01T04:32:39;14.10;99.90
26479;DHT22;14163;-26.142;27.992;2022-09-01T04:35:10;14.10;99.90
26479;DHT22;14163;-26.142;27.992;2022-09-01T04:37:43;14.10;99.90
26479;DHT22;14163;-26.142;27.992;2022-09-01T04:40:13;14.10;99.90
26479;DHT22;14163;-26.142;27.992;2022-09-01T04:42:44;14.10;99.90
26479;DHT22;14163;-26.142;27.992;2022-09-01T04:45:15;14.10;99.90
26479;DHT22;14163;-26.142;27.992;2022-09-01T04:47:48;14.10;99.90
26479;DHT22;14163;-26.142;27.992;2022-09-01T04:50:18;14.10;99.90
26479;DHT22;14163;-26.142;27.992;2022-09-01T04:52:48;14.10;99.90
26479;DHT22;14163;-26.142;27.992;2022-09-01T04:55:17;14.10;99.90
26479;DHT22;14163;-26.142;27.992;2022-09-01T04:57:47;14.10;99.90
26479;DHT22;14163;-26.142;27.992;2022-09-01T05:00:20;14.00;99.90
26479;DHT22;14163;-26.142;27.992;2022-09-01T05:02:51;14.00;99.90
26479;DHT22;14163;-26.142;27.992;2022-09-01T05:05:21;14.10;99.90
26479;DHT22;14163;-26.142;27.992;2022-09-01T05:07:51;14.20;99.90
26479;DHT22;14163;-26.142;27.992;2022-09-01T05:10:22;14.30;99.90
26479;DHT22;14163;-26.142;27.992;2022-09-01T05:12:55;14.40;99.90
26479;DHT22;14163;-26.142;27.992;2022-09-01T05:15:26;14.50;99.90
26479;DHT22;14163;-26.142;27.992;2022-09-01T05:17:56;14.60;99.90
26479;DHT22;14163;-26.142;27.992;2022-09-01T05:20:28;14.70;99.90
26479;DHT22;14163;-26.142;27.992;2022-09-01T05:22:57;14.80;99.90
26479;DHT22;14163;-26.142;27.992;2022-09-01T05:25:27;14.80;99.90
26479;DHT22;14163;-26.142;27.992;2022-09-01T05:27:56;14.80;99.90
26479;DHT22;14163;-26.142;27.992;2022-09-01T05:30:27;14.90;99.90
26479;DHT22;14163;-26.142;27.992;2022-09-01T05:32:57;14.90;99.90
26479;DHT22;14163;-26.142;27.992;2022-09-01T05:35:26;15.00;99.90
26479;DHT22;14163;-26.142;27.992;2022-09-01T05:37:57;15.00;99.90
26479;DHT22;14163;-26.142;27.992;2022-09-01T05:40:26;15.10;99.90
26479;DHT22;14163;-26.142;27.992;2022-09-01T05:42:55;15.00;99.90
26479;DHT22;14163;-26.142;27.992;2022-09-01T05:45:26;15.00;99.90
26479;DHT22;14163;-26.142;27.992;2022-09-01T05:47:55;15.00;99.90
26479;DHT22;14163;-26.142;27.992;2022-09-01T05:50:25;15.00;99.90
26479;DHT22;14163;-26.142;27.992;2022-09-01T05:52:55;15.00;99.90
26479;DHT22;14163;-26.142;27.992;2022-09-01T05:55:24;14.90;99.90
26479;DHT22;14163;-26.142;27.992;2022-09-01T05:57:53;14.80;99.90
26479;DHT22;14163;-26.142;27.992;2022-09-01T06:00:22;14.90;99.90
26479;DHT22;14163;-26.142;27.992;2022-09-01T06:03:02;14.90;99.90
26479;DHT22;14163;-26.142;27.992;2022-09-01T06:05:35;15.00;99.90
26479;DHT22;14163;-26.142;27.992;2022-09-01T06:08:07;15.00;99.90
26479;DHT22;14163;-26.142;27.992;2022-09-01T06:10:37;15.00;99.90
26479;DHT22;14163;-26.142;27.992;2022-09-01T06:13:08;14.90;99.90
26479;DHT22;14163;-26.142;27.992;2022-09-01T06:15:38;14.90;99.90
26479;DHT22;14163;-26.142;27.992;2022-09-01T06:18:10;14.80;99.90
26479;DHT22;14163;-26.142;27.992;2022-09-01T06:20:42;14.60;99.90
26479;DHT22;14163;-26.142;27.992;2022-09-01T06:23:13;14.50;99.90
26479;DHT22;14163;-26.142;27.992;2022-09-01T06:25:46;14.50;99.90
26479;DHT22;14163;-26.142;27.992;2022-09-01T06:28:16;14.40;99.90
26479;DHT22;14163;-26.142;27.992;2022-09-01T06:30:49;14.40;99.90
26479;DHT22;14163;-26.142;27.992;2022-09-01T06:33:20;14.40;99.90
26479;DHT22;14163;-26.142;27.992;2022-09-01T06:35:51;14.50;99.90
26479;DHT22;14163;-26.142;27.992;2022-09-01T06:38:21;14.50;99.90
26479;DHT22;14163;-26.142;27.992;2022-09-01T06:41:00;14.60;99.90
26479;DHT22;14163;-26.142;27.992;2022-09-01T06:43:30;14.60;99.90
26479;DHT22;14163;-26.142;27.992;2022-09-01T06:46:01;14.70;99.90
26479;DHT22;14163;-26.142;27.992;2022-09-01T06:48:32;14.80;99.90
26479;DHT22;14163;-26.142;27.992;2022-09-01T06:51:01;15.00;99.90
26479;DHT22;14163;-26.142;27.992;2022-09-01T06:53:31;15.00;99.90
26479;DHT22;14163;-26.142;27.992;2022-09-01T06:56:00;14.90;99.90
26479;DHT22;14163;-26.142;27.992;2022-09-01T06:58:30;14.70;99.90
26479;DHT22;14163;-26.142;27.992;2022-09-01T07:01:04;14.70;99.90
26479;DHT22;14163;-26.142;27.992;2022-09-01T07:03:35;14.70;99.90
26479;DHT22;14163;-26.142;27.992;2022-09-01T07:06:06;14.70;99.90
26479;DHT22;14163;-26.142;27.992;2022-09-01T07:08:36;14.70;99.90
26479;DHT22;14163;-26.142;27.992;2022-09-01T07:11:15;14.70;99.90
26479;DHT22;14163;-26.142;27.992;2022-09-01T07:13:51;14.70;99.90
26479;DHT22;14163;-26.142;27.992;2022-09-01T07:16:23;15.00;99.90
26479;DHT22;14163;-26.142;27.992;2022-09-01T07:18:57;15.00;99.90
26479;DHT22;14163;-26.142;27.992;2022-09-01T07:21:28;15.00;99.90
26479;DHT22;14163;-26.142;27.992;2022-09-01T07:23:59;15.00;99.90
26479;DHT22;14163;-26.142;27.992;2022-09-01T07:26:30;15.10;99.90
26479;DHT22;14163;-26.142;27.992;2022-09-01T07:29:02;15.10;99.90
26479;DHT22;14163;-26.142;27.992;2022-09-01T07:31:34;15.10;99.90
26479;DHT22;14163;-26.142;27.992;2022-09-01T07:34:07;15.20;99.90
26479;DHT22;14163;-26.142;27.992;2022-09-01T07:36:38;15.30;99.90
26479;DHT22;14163;-26.142;27.992;2022-09-01T07:39:09;15.40;99.90
26479;DHT22;14163;-26.142;27.992;2022-09-01T07:41:39;15.50;99.90
26479;DHT22;14163;-26.142;27.992;2022-09-01T07:44:08;15.60;99.90
26479;DHT22;14163;-26.142;27.992;2022-09-01T07:46:39;15.60;99.90
26479;DHT22;14163;-26.142;27.992;2022-09-01T07:49:10;15.80;99.90
26479;DHT22;14163;-26.142;27.992;2022-09-01T07:51:40;15.80;99.90
26479;DHT22;14163;-26.142;27.992;2022-09-01T07:54:09;15.70;99.90
26479;DHT22;14163;-26.142;27.992;2022-09-01T07:56:39;15.80;99.90
26479;DHT22;14163;-26.142;27.992;2022-09-01T07:59:08;15.80;99.90
26479;DHT22;14163;-26.142;27.992;2022-09-01T08:01:38;16.00;99.90
26479;DHT22;14163;-26.142;27.992;2022-09-01T08:04:13;16.10;99.90
26479;DHT22;14163;-26.142;27.992;2022-09-01T08:06:44;16.10;99.90
26479;DHT22;14163;-26.142;27.992;2022-09-01T08:09:13;16.10;99.90
26479;DHT22;14163;-26.142;27.992;2022-09-01T08:11:42;16.20;99.90
26479;DHT22;14163;-26.142;27.992;2022-09-01T08:14:11;16.20;99.90
26479;DHT22;14163;-26.142;27.992;2022-09-01T08:16:41;16.10;99.90
26479;DHT22;14163;-26.142;27.992;2022-09-01T08:19:11;16.10;99.90
26479;DHT22;14163;-26.142;27.992;2022-09-01T08:21:40;16.20;99.90
26479;DHT22;14163;-26.142;27.992;2022-09-01T08:24:10;16.20;99.90
26479;DHT22;14163;-26.142;27.992;2022-09-01T08:26:40;16.30;99.90
26479;DHT22;14163;-26.142;27.992;2022-09-01T08:29:09;16.30;99.90
26479;DHT22;14163;-26.142;27.992;2022-09-01T08:31:38;16.50;99.90
26479;DHT22;14163;-26.142;27.992;2022-09-01T08:34:07;16.70;99.90
26479;DHT22;14163;-26.142;27.992;2022-09-01T08:36:40;16.80;99.90
26479;DHT22;14163;-26.142;27.992;2022-09-01T08:39:09;17.00;99.90
26479;DHT22;14163;-26.142;27.992;2022-09-01T08:41:42;17.00;99.90
26479;DHT22;14163;-26.142;27.992;2022-09-01T08:44:31;16.80;99.90
26479;DHT22;14163;-26.142;27.992;2022-09-01T08:47:04;16.80;99.90
26479;DHT22;14163;-26.142;27.992;2022-09-01T08:49:35;17.00;99.90
26479;DHT22;14163;-26.142;27.992;2022-09-01T08:52:16;17.20;99.90
26479;DHT22;14163;-26.142;27.992;2022-09-01T08:54:49;17.30;99.90
26479;DHT22;14163;-26.142;27.992;2022-09-01T08:57:20;17.40;99.90
26479;DHT22;14163;-26.142;27.992;2022-09-01T08:59:52;17.30;99.90
26479;DHT22;14163;-26.142;27.992;2022-09-01T09:02:31;17.50;99.90
26479;DHT22;14163;-26.142;27.992;2022-09-01T09:05:07;17.60;99.90
26479;DHT22;14163;-26.142;27.992;2022-09-01T09:08:05;17.60;99.90
26479;DHT22;14163;-26.142;27.992;2022-09-01T09:10:43;17.60;99.90
26479;DHT22;14163;-26.142;27.992;2022-09-01T09:13:21;17.60;99.90
26479;DHT22;14163;-26.142;27.992;2022-09-01T09:15:55;17.50;99.90
26479;DHT22;14163;-26.142;27.992;2022-09-01T09:18:31;17.70;99.90
26479;DHT22;14163;-26.142;27.992;2022-09-01T09:21:07;17.70;99.90
26479;DHT22;14163;-26.142;27.992;2022-09-01T09:23:42;17.70;99.90
26479;DHT22;14163;-26.142;27.992;2022-09-01T09:26:13;17.80;99.90
26479;DHT22;14163;-26.142;27.992;2022-09-01T09:28:47;17.90;99.90
26479;DHT22;14163;-26.142;27.992;2022-09-01T09:31:31;18.10;99.90
26479;DHT22;14163;-26.142;27.992;2022-09-01T09:34:01;18.30;99.90
26479;DHT22;14163;-26.142;27.992;2022-09-01T09:36:32;18.50;99.90
26479;DHT22;14163;-26.142;27.992;2022-09-01T09:39:09;18.60;99.90
26479;DHT22;14163;-26.142;27.992;2022-09-01T09:41:39;18.60;99.90
26479;DHT22;14163;-26.142;27.992;2022-09-01T09:44:20;18.80;99.90
26479;DHT22;14163;-26.142;27.992;2022-09-01T09:46:50;19.00;99.90
26479;DHT22;14163;-26.142;27.992;2022-09-01T09:49:20;19.10;99.90
26479;DHT22;14163;-26.142;27.992;2022-09-01T09:51:53;19.30;99.90
26479;DHT22;14163;-26.142;27.992;2022-09-01T09:54:26;19.50;99.90
26479;DHT22;14163;-26.142;27.992;2022-09-01T09:57:11;19.70;99.90
26479;DHT22;14163;-26.142;27.992;2022-09-01T09:59:43;19.50;99.90
26479;DHT22;14163;-26.142;27.992;2022-09-01T10:02:25;19.40;99.90
26479;DHT22;14163;-26.142;27.992;2022-09-01T10:04:59;19.80;99.90
26479;DHT22;14163;-26.142;27.992;2022-09-01T10:07:35;20.20;99.90
26479;DHT22;14163;-26.142;27.992;2022-09-01T10:10:25;20.50;99.90
26479;DHT22;14163;-26.142;27.992;2022-09-01T10:12:55;21.00;99.90
26479;DHT22;14163;-26.142;27.992;2022-09-01T10:15:27;21.90;99.90
26479;DHT22;14163;-26.142;27.992;2022-09-01T10:18:01;22.80;99.90
26479;DHT22;14163;-26.142;27.992;2022-09-01T10:20:34;24.00;98.80
26479;DHT22;14163;-26.142;27.992;2022-09-01T10:23:05;25.50;94.60
26479;DHT22;14163;-26.142;27.992;2022-09-01T10:25:37;26.50;90.00
26479;DHT22;14163;-26.142;27.992;2022-09-01T10:28:11;27.30;85.20
26479;DHT22;14163;-26.142;27.992;2022-09-01T10:30:44;28.30;79.00
26479;DHT22;14163;-26.142;27.992;2022-09-01T10:33:16;28.40;75.20
26479;DHT22;14163;-26.142;27.992;2022-09-01T10:35:48;28.90;72.00
26479;DHT22;14163;-26.142;27.992;2022-09-01T10:38:21;28.90;70.50
26479;DHT22;14163;-26.142;27.992;2022-09-01T10:40:53;29.70;70.30
26479;DHT22;14163;-26.142;27.992;2022-09-01T10:43:37;30.50;66.50
26479;DHT22;14163;-26.142;27.992;2022-09-01T10:49:21;31.30;59.60
26479;DHT22;14163;-26.142;27.992;2022-09-01T10:51:50;30.90;59.30
26479;DHT22;14163;-26.142;27.992;2022-09-01T10:54:52;30.70;57.90
26479;DHT22;14163;-26.142;27.992;2022-09-01T10:57:38;30.70;58.40
26479;DHT22;14163;-26.142;27.992;2022-09-01T11:00:43;31.10;57.60
26479;DHT22;14163;-26.142;27.992;2022-09-01T11:03:38;31.80;57.00
26479;DHT22;14163;-26.142;27.992;2022-09-01T11:06:08;31.40;55.60
26479;DHT22;14163;-26.142;27.992;2022-09-01T11:08:44;31.50;54.90
26479;DHT22;14163;-26.142;27.992;2022-09-01T11:11:26;31.90;54.70
26479;DHT22;14163;-26.142;27.992;2022-09-01T11:13:58;32.00;53.60
26479;DHT22;14163;-26.142;27.992;2022-09-01T11:16:34;31.30;53.90
26479;DHT22;14163;-26.142;27.992;2022-09-01T11:19:26;31.50;53.90
26479;DHT22;14163;-26.142;27.992;2022-09-01T11:22:12;32.10;54.10
26479;DHT22;14163;-26.142;27.992;2022-09-01T11:34:13;33.90;50.50
26479;DHT22;14163;-26.142;27.992;2022-09-01T11:36:53;34.40;49.70
26479;DHT22;14163;-26.142;27.992;2022-09-01T11:39:38;34.80;49.00
26479;DHT22;14163;-26.142;27.992;2022-09-01T11:42:11;34.70;48.20
26479;DHT22;14163;-26.142;27.992;2022-09-01T11:44:48;34.80;47.50
26479;DHT22;14163;-26.142;27.992;2022-09-01T11:47:24;34.70;46.80
26479;DHT22;14163;-26.142;27.992;2022-09-01T11:49:57;34.80;47.30
26479;DHT22;14163;-26.142;27.992;2022-09-01T11:52:30;35.10;46.40
26479;DHT22;14163;-26.142;27.992;2022-09-01T11:55:00;35.30;46.00
26479;DHT22;14163;-26.142;27.992;2022-09-01T11:57:32;35.70;46.00
26479;DHT22;14163;-26.142;27.992;2022-09-01T12:00:04;36.00;45.70
26479;DHT22;14163;-26.142;27.992;2022-09-01T12:02:41;35.80;45.30
26479;DHT22;14163;-26.142;27.992;2022-09-01T12:05:26;35.20;45.20
26479;DHT22;14163;-26.142;27.992;2022-09-01T12:07:56;35.20;45.60
26479;DHT22;14163;-26.142;27.992;2022-09-01T12:10:31;35.30;45.30
26479;DHT22;14163;-26.142;27.992;2022-09-01T12:13:03;35.50;45.00
26479;DHT22;14163;-26.142;27.992;2022-09-01T12:15:33;35.10;44.90
26479;DHT22;14163;-26.142;27.992;2022-09-01T12:18:14;34.40;45.70
26479;DHT22;14163;-26.142;27.992;2022-09-01T12:20:46;33.50;46.10
26479;DHT22;14163;-26.142;27.992;2022-09-01T12:23:21;33.30;46.90
26479;DHT22;14163;-26.142;27.992;2022-09-01T12:25:53;33.10;46.60
26479;DHT22;14163;-26.142;27.992;2022-09-01T12:28:24;32.60;46.90
26479;DHT22;14163;-26.142;27.992;2022-09-01T12:30:58;31.70;47.30
26479;DHT22;14163;-26.142;27.992;2022-09-01T12:33:29;31.00;48.70
26479;DHT22;14163;-26.142;27.992;2022-09-01T12:36:29;30.50;48.90
26479;DHT22;14163;-26.142;27.992;2022-09-01T12:39:18;29.90;48.80
26479;DHT22;14163;-26.142;27.992;2022-09-01T12:42:03;29.50;49.20
26479;DHT22;14163;-26.142;27.992;2022-09-01T12:44:34;29.10;50.10
26479;DHT22;14163;-26.142;27.992;2022-09-01T12:47:11;28.70;49.70
26479;DHT22;14163;-26.142;27.992;2022-09-01T12:49:44;28.20;50.00
26479;DHT22;14163;-26.142;27.992;2022-09-01T12:52:21;27.80;50.50
26479;DHT22;14163;-26.142;27.992;2022-09-01T12:54:54;27.70;50.60
26479;DHT22;14163;-26.142;27.992;2022-09-01T12:57:37;27.50;50.90
26479;DHT22;14163;-26.142;27.992;2022-09-01T13:00:16;27.30;51.00
26479;DHT22;14163;-26.142;27.992;2022-09-01T13:02:48;27.20;51.30
26479;DHT22;14163;-26.142;27.992;2022-09-01T13:05:25;27.20;51.70
26479;DHT22;14163;-26.142;27.992;2022-09-01T13:07:57;27.20;51.70
26479;DHT22;14163;-26.142;27.992;2022-09-01T13:10:31;27.10;50.80
26479;DHT22;14163;-26.142;27.992;2022-09-01T13:13:01;27.00;51.10
26479;DHT22;14163;-26.142;27.992;2022-09-01T13:15:30;27.00;50.90
26479;DHT22;14163;-26.142;27.992;2022-09-01T13:17:59;27.10;51.20
26479;DHT22;14163;-26.142;27.992;2022-09-01T13:20:30;27.00;50.50
26479;DHT22;14163;-26.142;27.992;2022-09-01T13:23:00;26.90;50.90
26479;DHT22;14163;-26.142;27.992;2022-09-01T13:25:29;26.80;51.60
26479;DHT22;14163;-26.142;27.992;2022-09-01T13:27:59;26.60;51.60
26479;DHT22;14163;-26.142;27.992;2022-09-01T13:30:29;26.40;51.60
26479;DHT22;14163;-26.142;27.992;2022-09-01T13:32:58;25.90;51.60
26479;DHT22;14163;-26.142;27.992;2022-09-01T13:35:29;25.80;52.30
26479;DHT22;14163;-26.142;27.992;2022-09-01T13:37:58;25.70;52.10
26479;DHT22;14163;-26.142;27.992;2022-09-01T13:40:27;25.60;52.40
26479;DHT22;14163;-26.142;27.992;2022-09-01T13:42:57;25.40;52.50
26479;DHT22;14163;-26.142;27.992;2022-09-01T13:45:26;25.30;52.50
26479;DHT22;14163;-26.142;27.992;2022-09-01T13:47:55;25.30;53.50
26479;DHT22;14163;-26.142;27.992;2022-09-01T13:50:25;25.50;53.90
26479;DHT22;14163;-26.142;27.992;2022-09-01T13:52:56;25.80;53.20
26479;DHT22;14163;-26.142;27.992;2022-09-01T13:55:27;25.70;52.70
26479;DHT22;14163;-26.142;27.992;2022-09-01T13:57:57;25.30;53.00
26479;DHT22;14163;-26.142;27.992;2022-09-01T14:00:27;25.00;53.00
26479;DHT22;14163;-26.142;27.992;2022-09-01T14:03:00;24.80;53.60
26479;DHT22;14163;-26.142;27.992;2022-09-01T14:05:31;24.90;53.70
26479;DHT22;14163;-26.142;27.992;2022-09-01T14:08:03;25.10;53.40
26479;DHT22;14163;-26.142;27.992;2022-09-01T14:10:35;25.20;53.10
26479;DHT22;14163;-26.142;27.992;2022-09-01T14:13:05;25.30;53.10
26479;DHT22;14163;-26.142;27.992;2022-09-01T14:15:35;25.40;53.90
26479;DHT22;14163;-26.142;27.992;2022-09-01T14:18:04;25.50;53.50
26479;DHT22;14163;-26.142;27.992;2022-09-01T14:20:35;25.80;53.70
26479;DHT22;14163;-26.142;27.992;2022-09-01T14:23:08;25.90;53.20
26479;DHT22;14163;-26.142;27.992;2022-09-01T14:25:42;26.00;52.60
26479;DHT22;14163;-26.142;27.992;2022-09-01T14:28:12;25.90;52.80
26479;DHT22;14163;-26.142;27.992;2022-09-01T14:30:42;25.80;52.90
26479;DHT22;14163;-26.142;27.992;2022-09-01T14:33:12;25.50;53.10
26479;DHT22;14163;-26.142;27.992;2022-09-01T14:35:42;25.50;54.00
26479;DHT22;14163;-26.142;27.992;2022-09-01T14:38:14;25.60;53.90
26479;DHT22;14163;-26.142;27.992;2022-09-01T14:40:47;25.40;54.00
26479;DHT22;14163;-26.142;27.992;2022-09-01T14:43:18;25.30;54.40
26479;DHT22;14163;-26.142;27.992;2022-09-01T14:45:48;25.30;54.60
26479;DHT22;14163;-26.142;27.992;2022-09-01T14:48:18;25.10;54.80
26479;DHT22;14163;-26.142;27.992;2022-09-01T14:50:48;24.90;54.90
26479;DHT22;14163;-26.142;27.992;2022-09-01T14:53:19;24.90;55.30
26479;DHT22;14163;-26.142;27.992;2022-09-01T14:55:48;25.00;55.30
26479;DHT22;14163;-26.142;27.992;2022-09-01T14:58:17;25.00;55.10
26479;DHT22;14163;-26.142;27.992;2022-09-01T15:00:47;24.80;55.10
26479;DHT22;14163;-26.142;27.992;2022-09-01T15:03:16;24.70;55.40
26479;DHT22;14163;-26.142;27.992;2022-09-01T15:05:45;24.50;55.60
26479;DHT22;14163;-26.142;27.992;2022-09-01T15:08:15;24.20;56.10
26479;DHT22;14163;-26.142;27.992;2022-09-01T15:10:46;24.10;56.50
26479;DHT22;14163;-26.142;27.992;2022-09-01T15:13:16;24.20;56.60
26479;DHT22;14163;-26.142;27.992;2022-09-01T15:15:46;24.20;56.00
26479;DHT22;14163;-26.142;27.992;2022-09-01T15:18:15;24.10;56.20
26479;DHT22;14163;-26.142;27.992;2022-09-01T15:20:44;24.00;56.50
26479;DHT22;14163;-26.142;27.992;2022-09-01T15:23:16;23.90;56.50
26479;DHT22;14163;-26.142;27.992;2022-09-01T15:25:48;24.10;56.60
26479;DHT22;14163;-26.142;27.992;2022-09-01T15:28:18;24.10;56.30
26479;DHT22;14163;-26.142;27.992;2022-09-01T15:30:48;24.20;56.60
26479;DHT22;14163;-26.142;27.992;2022-09-01T15:33:18;24.30;56.70
26479;DHT22;14163;-26.142;27.992;2022-09-01T15:35:47;24.20;56.80
26479;DHT22;14163;-26.142;27.992;2022-09-01T15:38:17;24.10;57.30
26479;DHT22;14163;-26.142;27.992;2022-09-01T15:40:49;24.10;57.70
26479;DHT22;14163;-26.142;27.992;2022-09-01T15:43:18;24.10;58.10
26479;DHT22;14163;-26.142;27.992;2022-09-01T15:45:48;24.00;58.10